TimeHST,TemperatureF,Dew PointF,Humidity,Sea Level PressureIn,VisibilityMPH,Wind Direction,Wind SpeedMPH,Gust SpeedMPH,PrecipitationIn,Events,Conditions,WindDirDegrees,DateUTC
12:57 AM,69.8,63.0,79,30.09,10.0,NE,12.7,21.9,N/A,,Scattered Clouds,50,2013-02-01 10:57:00
1:57 AM,-9999,-9999,N/A,30.09,10.0,ENE,9.2,17.3,N/A,,Clear,60,2013-02-01 11:57:00
2:57 AM,-9999,-9999,N/A,30.08,10.0,NE,11.5,16.1,N/A,,Mostly Cloudy,50,2013-02-01 12:57:00
3:57 AM,69.8,59.0,68,30.07,10.0,NE,12.7,17.3,N/A,,Mostly Cloudy,50,2013-02-01 13:57:00
4:57 AM,69.8,59.0,68,30.07,10.0,ENE,9.2,17.3,N/A,,Mostly Cloudy,60,2013-02-01 14:57:00
5:57 AM,69.8,63.1,79,30.09,10.0,ENE,9.2,18.4,0.00,,Mostly Cloudy,60,2013-02-01 15:57:00
6:57 AM,71.1,55.9,59,30.10,10.0,ENE,12.7,20.7,N/A,,Mostly Cloudy,60,2013-02-01 16:57:00
7:57 AM,71.6,57.0,60,30.12,10.0,NE,12.7,18.4,N/A,,Mostly Cloudy,50,2013-02-01 17:57:00
8:00 AM,-9999,-9999,N/A,-9999,-9999.0,North,-9999.0,-,N/A,,Unknown,0,2013-02-01 18:00:00
8:57 AM,72.1,59.0,63,30.13,10.0,ENE,9.2,-,N/A,,Mostly Cloudy,60,2013-02-01 18:57:00
9:57 AM,74.5,57.9,56,30.14,10.0,ENE,9.2,18.4,N/A,,Mostly Cloudy,60,2013-02-01 19:57:00
10:57 AM,77.2,60.1,55,30.14,10.0,ENE,11.5,20.7,N/A,,Scattered Clouds,70,2013-02-01 20:57:00
11:57 AM,77.5,57.9,51,30.14,10.0,ENE,10.4,-,N/A,,Overcast,70,2013-02-01 21:57:00
12:57 PM,79.9,61.0,52,30.11,10.0,ENE,11.5,18.4,N/A,,Mostly Cloudy,60,2013-02-01 22:57:00
1:57 PM,79.5,61.0,53,30.10,10.0,ENE,8.1,18.4,N/A,,Scattered Clouds,70,2013-02-01 23:57:00
2:57 PM,79.2,57.9,48,30.08,10.0,ENE,11.5,-,N/A,,Mostly Cloudy,60,2013-02-02 00:57:00
3:57 PM,79.9,60.1,51,30.07,10.0,NE,8.1,-,N/A,,Scattered Clouds,50,2013-02-02 01:57:00
4:57 PM,78.1,60.1,54,30.07,10.0,NE,6.9,-,N/A,,Scattered Clouds,50,2013-02-02 02:57:00
5:57 PM,77.7,61.0,56,30.09,10.0,ENE,6.9,-,N/A,,Mostly Cloudy,60,2013-02-02 03:57:00
6:57 PM,74.5,62.1,65,30.10,10.0,ENE,11.5,16.1,N/A,,Mostly Cloudy,60,2013-02-02 04:57:00
7:57 PM,73.0,61.0,66,30.12,10.0,East,10.4,17.3,N/A,,Mostly Cloudy,80,2013-02-02 05:57:00
8:57 PM,72.3,60.1,65,30.13,10.0,East,12.7,23.0,N/A,,Overcast,80,2013-02-02 06:57:00
9:48 PM,71.6,60.8,69,30.15,10.0,East,12.7,19.6,N/A,,Overcast,90,2013-02-02 07:48:00
9:57 PM,72.5,61.0,67,30.13,10.0,East,11.5,18.4,N/A,,Mostly Cloudy,90,2013-02-02 07:57:00
10:24 PM,73.4,60.8,65,30.14,10.0,East,9.2,24.2,N/A,,Overcast,90,2013-02-02 08:24:00
10:45 PM,73.4,60.8,65,30.14,10.0,ENE,8.1,19.6,N/A,,Overcast,70,2013-02-02 08:45:00
10:57 PM,72.5,61.0,67,30.13,10.0,East,9.2,16.1,N/A,,Overcast,90,2013-02-02 08:57:00
11:43 PM,73.4,62.6,69,30.13,10.0,East,6.9,18.4,N/A,,Mostly Cloudy,90,2013-02-02 09:43:00
11:57 PM,73.0,62.1,68,30.11,10.0,East,8.1,24.2,N/A,,Overcast,90,2013-02-02 09:57:00